Time;durP1;ratioP1;P1;durP2;ratioP2;P2;SDS_P1;SDS_P2;PMS_P1;PMS_P2;Temp;Humidity;BMP_temperature;BMP_pressure;BME280_temperature;BME280_humidity;BME280_pressure;Samples;Min_cycle;Max_cycle;Signal;HPM_P1;HPM_P2
2022/03/28 00:01:15;;;;;;;14.32;7.20;;;;;;;9.88;71.55;100957.22;4992440;28;20026;-64
2022/03/28 00:03:40;;;;;;;12.77;7.15;;;;;;;9.90;71.90;100957.19;4993041;28;20033;-64
2022/03/28 00:06:09;;;;;;;12.70;5.65;;;;;;;9.82;73.06;100949.31;5003001;28;20069;-64
2022/03/28 00:08:36;;;;;;;11.25;6.90;;;;;;;9.81;72.90;100957.31;4992464;28;20072;-64
2022/03/28 00:11:02;;;;;;;15.15;7.85;;;;;;;9.78;72.57;100950.28;4992787;28;20056;-64
2022/03/28 00:13:27;;;;;;;12.20;6.68;;;;;;;9.63;73.45;100950.50;4992806;28;20434;-65
2022/03/28 00:15:53;;;;;;;18.98;6.35;;;;;;;9.56;73.30;100948.81;4992401;28;20121;-65
2022/03/28 00:18:19;;;;;;;12.13;6.10;;;;;;;9.55;73.02;100946.16;4992144;28;20026;-64
2022/03/28 00:20:47;;;;;;;13.02;5.95;;;;;;;9.59;72.66;100946.09;4978977;28;20014;-64
2022/03/28 00:23:16;;;;;;;11.50;6.50;;;;;;;9.35;72.64;100943.78;4992346;28;20042;-64
2022/03/28 00:25:44;;;;;;;12.38;5.90;;;;;;;9.36;73.39;100948.19;4992081;28;20050;-64
2022/03/28 00:28:10;;;;;;;13.63;5.88;;;;;;;9.33;72.96;100942.91;4990838;28;20061;-64
2022/03/28 00:30:35;;;;;;;10.43;6.03;;;;;;;9.17;73.01;100944.91;4992219;28;20112;-64
2022/03/28 00:33:01;;;;;;;12.65;5.68;;;;;;;9.09;73.46;100943.22;4992295;28;20030;-64
2022/03/28 00:35:26;;;;;;;11.35;5.75;;;;;;;9.05;73.94;100933.53;4992152;28;20019;-64
2022/03/28 00:37:53;;;;;;;12.38;6.95;;;;;;;9.08;74.68;100941.47;4991947;28;20501;-64
2022/03/28 00:40:19;;;;;;;12.52;7.43;;;;;;;9.09;74.75;100940.59;4992433;28;20050;-64
2022/03/28 00:42:45;;;;;;;16.63;7.00;;;;;;;9.06;74.39;100930.00;4992242;28;20164;-64
2022/03/28 00:45:11;;;;;;;11.18;6.15;;;;;;;8.98;74.36;100938.03;4990774;28;20493;-64
2022/03/28 00:47:36;;;;;;;14.38;7.53;;;;;;;9.00;74.71;100935.38;4992177;28;20014;-63
2022/03/28 00:50:03;;;;;;;11.48;6.57;;;;;;;8.86;75.50;100938.16;4992306;28;20409;-64
2022/03/28 00:52:29;;;;;;;11.00;5.78;;;;;;;8.83;75.26;100937.34;4992047;28;20044;-64
2022/03/28 00:54:57;;;;;;;12.88;6.55;;;;;;;8.69;76.03;100928.66;4973854;28;20026;-64
2022/03/28 00:57:22;;;;;;;16.50;5.97;;;;;;;8.66;76.07;100929.56;4991512;28;20030;-64
2022/03/28 00:59:48;;;;;;;11.35;6.10;;;;;;;8.57;76.51;100936.72;4992213;28;20022;-64
2022/03/28 01:02:13;;;;;;;11.00;5.95;;;;;;;8.41;78.09;100938.66;4991910;28;20030;-64
2022/03/28 01:04:39;;;;;;;12.05;5.47;;;;;;;8.36;77.76;100934.28;4974244;28;20367;-64
2022/03/28 01:07:08;;;;;;;14.30;6.18;;;;;;;8.36;77.58;100942.22;4991227;28;20029;-64
2022/03/28 01:09:34;;;;;;;13.20;5.70;;;;;;;8.39;77.19;100940.44;4992164;28;20039;-64
2022/03/28 01:12:01;;;;;;;13.43;6.30;;;;;;;8.32;77.95;100929.91;4991702;28;20069;-64
2022/03/28 01:14:27;;;;;;;10.23;5.43;;;;;;;8.25;78.29;100936.16;4991944;28;20117;-64
2022/03/28 01:19:36;;;;;;;12.15;6.88;;;;;;;8.19;79.44;100928.22;4992021;28;20504;-64
2022/03/28 01:22:02;;;;;;;14.68;5.97;;;;;;;8.22;78.97;100920.25;4991733;28;20026;-64
2022/03/28 01:24:27;;;;;;;12.10;6.35;;;;;;;8.10;79.07;100909.75;4990459;28;20030;-64
2022/03/28 01:26:55;;;;;;;12.40;6.03;;;;;;;7.95;79.52;100911.63;4991293;28;20041;-64
2022/03/28 01:29:20;;;;;;;12.73;6.55;;;;;;;7.86;79.55;100911.69;4992010;28;20028;-64
2022/03/28 01:31:46;;;;;;;14.43;5.82;;;;;;;7.85;80.18;100907.28;4991140;28;20022;-64
2022/03/28 01:34:18;;;;;;;16.52;7.80;;;;;;;7.89;80.24;100911.66;4991377;28;20045;-64
2022/03/28 01:36:47;;;;;;;12.90;7.05;;;;;;;8.00;80.20;100912.47;4991470;28;20022;-64
2022/03/28 01:39:17;;;;;;;13.15;7.15;;;;;;;8.07;79.40;100912.41;4991071;28;20523;-64
2022/03/28 01:41:43;;;;;;;12.95;7.32;;;;;;;8.07;78.58;100912.41;4990755;28;20038;-64
2022/03/28 01:44:10;;;;;;;13.85;6.97;;;;;;;8.11;79.07;100915.03;4991630;28;20444;-65
2022/03/28 01:46:46;;;;;;;14.90;7.90;;;;;;;8.18;78.83;100913.19;4991403;28;20026;-64
2022/03/28 01:49:13;;;;;;;12.90;7.18;;;;;;;8.15;79.56;100907.94;4991271;28;20085;-64
2022/03/28 01:51:38;;;;;;;13.95;8.10;;;;;;;8.21;79.07;100907.88;4991379;28;20043;-64
2022/03/28 01:54:04;;;;;;;13.38;6.18;;;;;;;8.26;78.81;100912.28;4990974;28;20030;-64
2022/03/28 01:56:32;;;;;;;14.35;7.22;;;;;;;8.28;79.02;100904.31;4973548;28;20022;-64
2022/03/28 01:58:58;;;;;;;19.45;7.97;;;;;;;8.24;78.97;100910.56;4991222;28;20033;-64
2022/03/28 02:01:23;;;;;;;13.70;7.30;;;;;;;8.18;79.07;100903.50;5000260;28;20030;-64
2022/03/28 02:03:49;;;;;;;18.02;6.47;;;;;;;8.06;79.14;100906.22;4991838;28;20512;-64
2022/03/28 02:06:14;;;;;;;11.70;6.80;;;;;;;7.99;79.70;100907.16;4993442;28;20489;-64
2022/03/28 02:08:40;;;;;;;18.70;7.32;;;;;;;7.96;79.57;100908.09;4994988;28;20077;-64
2022/03/28 02:11:06;;;;;;;14.93;6.60;;;;;;;7.84;79.21;100905.53;4994556;28;20029;-64
2022/03/28 02:13:31;;;;;;;15.75;7.13;;;;;;;7.74;78.51;100906.47;4994869;28;20018;-64
2022/03/28 02:15:57;;;;;;;11.15;6.55;;;;;;;7.66;78.73;100905.66;4994190;28;20030;-64
2022/03/28 02:18:22;;;;;;;15.13;7.65;;;;;;;7.59;78.71;100898.66;4993362;28;20382;-64
2022/03/28 02:20:47;;;;;;;14.77;6.93;;;;;;;7.53;78.57;100900.44;4994103;28;20037;-64
2022/03/28 02:23:13;;;;;;;13.10;7.00;;;;;;;7.50;78.59;100903.09;4993522;28;20038;-64
2022/03/28 02:25:39;;;;;;;13.88;7.10;;;;;;;7.40;79.27;100901.41;4993538;28;20033;-64
2022/03/28 02:28:05;;;;;;;15.18;6.80;;;;;;;7.43;79.63;100904.06;4994276;28;20014;-64
2022/03/28 02:30:30;;;;;;;14.50;5.85;;;;;;;7.42;79.32;100895.22;4994194;28;20101;-64
2022/03/28 02:32:57;;;;;;;13.93;6.75;;;;;;;7.24;80.28;100897.97;4994465;28;20153;-64
2022/03/28 02:35:23;;;;;;;12.27;6.60;;;;;;;7.11;80.82;100883.06;4994553;28;20515;-64
2022/03/28 02:37:50;;;;;;;15.02;6.53;;;;;;;7.17;81.28;100895.34;4994538;28;20094;-64
2022/03/28 02:40:15;;;;;;;11.98;6.97;;;;;;;7.21;80.78;100882.13;4994250;28;20031;-64
2022/03/28 02:42:41;;;;;;;12.93;6.60;;;;;;;7.27;80.48;100886.47;4994066;28;20026;-64
2022/03/28 02:45:07;;;;;;;12.35;6.57;;;;;;;7.43;79.98;100883.75;4976754;28;20109;-64
2022/03/28 02:47:33;;;;;;;14.43;6.88;;;;;;;7.46;80.52;100883.72;4994127;28;20023;-64
2022/03/28 02:49:58;;;;;;;13.40;6.68;;;;;;;7.47;80.51;100880.19;4993928;28;20053;-66
2022/03/28 02:52:24;;;;;;;12.98;7.00;;;;;;;7.45;80.05;100876.69;4994185;28;20037;-64
2022/03/28 02:54:50;;;;;;;13.80;7.10;;;;;;;7.45;79.65;100878.44;4993430;28;20053;-64
2022/03/28 02:57:16;;;;;;;17.83;7.00;;;;;;;7.34;79.81;100882.91;5002639;28;20026;-64
2022/03/28 02:59:41;;;;;;;15.02;7.43;;;;;;;7.27;79.90;100874.13;5013493;28;20477;-64
2022/03/28 03:02:07;;;;;;;12.20;7.13;;;;;;;7.26;80.50;100875.03;5004569;28;20057;-64
2022/03/28 03:04:33;;;;;;;16.38;7.22;;;;;;;7.24;79.96;100875.91;4993938;28;20705;-64
2022/03/28 03:06:59;;;;;;;15.48;7.72;;;;;;;7.20;80.15;100869.75;4993677;28;20122;-64
2022/03/28 03:09:24;;;;;;;12.88;6.57;;;;;;;7.17;79.50;100868.91;4993333;28;20492;-64
2022/03/28 03:11:50;;;;;;;12.52;6.22;;;;;;;7.21;80.05;100866.25;4993625;28;20402;-64
2022/03/28 03:14:16;;;;;;;13.05;6.22;;;;;;;7.14;80.98;100869.81;4993732;28;20030;-64
2022/03/28 03:16:41;;;;;;;13.38;5.80;;;;;;;7.07;81.56;100873.34;4992790;28;20025;-64
2022/03/28 03:19:07;;;;;;;18.05;6.85;;;;;;;6.96;80.97;100874.28;4993235;28;20022;-64
2022/03/28 03:21:32;;;;;;;12.38;6.43;;;;;;;6.93;81.27;100875.22;4993715;28;20033;-64
2022/03/28 03:23:58;;;;;;;13.00;6.80;;;;;;;6.97;80.28;100876.94;4993442;28;20109;-64
2022/03/28 03:26:23;;;;;;;14.57;6.82;;;;;;;6.94;80.93;100881.34;4992213;28;20400;-64
2022/03/28 03:28:49;;;;;;;14.80;7.53;;;;;;;6.90;80.94;100869.03;4992547;28;20022;-65
2022/03/28 03:31:14;;;;;;;16.15;6.65;;;;;;;6.82;80.81;100871.69;4992498;28;20030;-64
2022/03/28 03:33:40;;;;;;;12.10;6.88;;;;;;;6.85;80.67;100871.72;4993497;28;20022;-65
2022/03/28 03:36:06;;;;;;;14.32;8.68;;;;;;;6.85;80.54;100866.44;4992767;28;20537;-64
2022/03/28 03:38:32;;;;;;;12.68;6.57;;;;;;;6.86;80.13;100873.47;4993050;28;20018;-64
2022/03/28 03:40:58;;;;;;;15.50;7.20;;;;;;;6.88;80.18;100879.63;4992639;28;20024;-64
2022/03/28 03:43:25;;;;;;;10.77;6.07;;;;;;;6.96;80.90;100875.19;4993243;28;20119;-64
2022/03/28 03:45:51;;;;;;;13.57;6.70;;;;;;;7.07;79.67;100852.19;4992966;28;20122;-64
2022/03/28 03:48:18;;;;;;;14.40;6.85;;;;;;;7.18;78.70;100882.13;4992660;28;20042;-64
2022/03/28 03:50:44;;;;;;;13.07;7.25;;;;;;;7.01;78.71;100872.50;4992949;28;20032;-64
2022/03/28 03:53:09;;;;;;;15.00;7.03;;;;;;;6.96;79.97;100879.59;4999040;28;20477;-64
2022/03/28 03:55:35;;;;;;;13.27;7.40;;;;;;;6.83;79.74;100877.88;5011738;28;20040;-64
2022/03/28 03:58:00;;;;;;;13.60;7.40;;;;;;;6.84;79.74;100877.88;5012352;28;20109;-64
2022/03/28 04:00:26;;;;;;;15.15;7.53;;;;;;;6.80;80.12;100876.13;5012398;28;20036;-64
2022/03/28 04:02:51;;;;;;;14.15;7.78;;;;;;;6.86;80.93;100884.03;4997614;28;20033;-64
2022/03/28 04:05:17;;;;;;;12.70;7.03;;;;;;;6.75;81.24;100875.28;4992615;28;20022;-64
2022/03/28 04:07:42;;;;;;;16.60;6.60;;;;;;;6.74;81.18;100884.06;4992808;28;20030;-64
2022/03/28 04:10:08;;;;;;;9.95;6.18;;;;;;;6.66;79.78;100885.88;4992479;28;20543;-64
2022/03/28 04:12:34;;;;;;;13.73;6.22;;;;;;;6.63;79.88;100888.53;4992708;28;20030;-64
2022/03/28 04:15:01;;;;;;;12.65;5.88;;;;;;;6.55;79.34;100882.38;4992541;28;20117;-65
2022/03/28 04:17:28;;;;;;;12.18;6.45;;;;;;;6.45;79.57;100888.56;4992321;28;20023;-64
2022/03/28 04:19:54;;;;;;;10.77;5.93;;;;;;;6.21;79.77;100873.63;4992466;28;20096;-64
2022/03/28 04:22:19;;;;;;;13.27;6.70;;;;;;;6.39;80.18;100885.94;4992334;28;20577;-65
2022/03/28 04:24:45;;;;;;;18.23;6.85;;;;;;;6.29;80.65;100890.34;4992185;28;20030;-64
2022/03/28 04:27:11;;;;;;;15.27;6.38;;;;;;;6.28;81.28;100895.63;4992206;28;20026;-64
2022/03/28 04:29:37;;;;;;;11.88;7.13;;;;;;;6.29;81.39;100889.50;4991602;28;20023;-64
2022/03/28 04:32:02;;;;;;;16.33;6.80;;;;;;;6.18;81.59;100881.56;4992362;28;20393;-64
2022/03/28 04:34:28;;;;;;;11.73;6.13;;;;;;;6.19;82.26;100893.91;4992188;28;20113;-64
2022/03/28 04:36:53;;;;;;;12.63;7.68;;;;;;;6.09;82.27;100886.00;4990719;28;20494;-64
2022/03/28 04:39:18;;;;;;;12.38;7.22;;;;;;;6.11;82.63;100886.88;4973476;28;20026;-64
2022/03/28 04:41:44;;;;;;;16.58;7.40;;;;;;;6.25;82.69;100882.44;4992234;28;20037;-64
2022/03/28 04:44:10;;;;;;;14.50;7.00;;;;;;;6.38;81.82;100890.34;4992008;28;20053;-64
2022/03/28 04:46:35;;;;;;;17.80;7.60;;;;;;;6.39;81.19;100880.66;4991843;28;20109;-64
2022/03/28 04:49:01;;;;;;;14.88;8.38;;;;;;;6.33;80.88;100881.53;4994729;28;20049;-63
2022/03/28 04:51:26;;;;;;;16.45;8.40;;;;;;;6.34;80.82;100893.00;5010479;28;20367;-63
2022/03/28 04:53:52;;;;;;;16.48;8.05;;;;;;;6.35;80.92;100885.06;5010897;28;20389;-63
2022/03/28 04:56:17;;;;;;;16.02;8.88;;;;;;;6.36;81.53;100876.25;5011479;28;20122;-64
2022/03/28 04:58:43;;;;;;;23.40;9.77;;;;;;;6.34;81.24;100882.44;5011785;28;20116;-63
2022/03/28 05:01:08;;;;;;;15.45;8.77;;;;;;;6.31;81.25;100887.72;5010297;28;20026;-64
2022/03/28 05:03:34;;;;;;;17.13;9.40;;;;;;;6.29;81.60;100887.69;4992040;28;20496;-63
2022/03/28 05:06:00;;;;;;;18.70;9.32;;;;;;;6.22;81.27;100887.72;4991646;28;20030;-63
2022/03/28 05:08:25;;;;;;;32.90;8.70;;;;;;;6.06;82.72;100888.63;4991959;28;20030;-64
2022/03/28 05:10:51;;;;;;;17.85;8.57;;;;;;;6.04;82.09;100880.72;4991636;28;20031;-64
2022/03/28 05:13:16;;;;;;;20.02;8.40;;;;;;;5.96;82.35;100879.84;4992137;28;20505;-63
2022/03/28 05:15:41;;;;;;;16.42;7.95;;;;;;;6.06;82.48;100886.00;4991883;28;20029;-64
2022/03/28 05:18:07;;;;;;;15.30;8.60;;;;;;;6.16;82.08;100883.31;4992129;28;20031;-64
2022/03/28 05:20:32;;;;;;;17.50;7.78;;;;;;;6.17;81.97;100882.47;4991564;28;20101;-64
2022/03/28 05:22:58;;;;;;;13.32;8.15;;;;;;;6.10;82.23;100885.97;4991526;28;20018;-64
2022/03/28 05:25:23;;;;;;;15.57;7.80;;;;;;;6.14;83.24;100894.78;4991600;28;20022;-64
2022/03/28 05:27:49;;;;;;;15.70;7.60;;;;;;;6.19;82.96;100879.81;4991954;28;20093;-64
2022/03/28 05:30:17;;;;;;;17.38;8.35;;;;;;;6.31;82.58;100882.44;4991510;28;20022;-64
2022/03/28 05:32:43;;;;;;;21.25;8.05;;;;;;;6.35;82.10;100884.19;4991033;28;20018;-64
2022/03/28 05:35:09;;;;;;;21.05;7.75;;;;;;;6.20;81.96;100886.84;4991391;28;20037;-63
2022/03/28 05:37:35;;;;;;;12.32;6.72;;;;;;;6.26;82.30;100876.28;4991641;28;20421;-63
2022/03/28 05:40:02;;;;;;;21.55;9.10;;;;;;;6.43;82.41;100887.69;4991606;28;20357;-64
2022/03/28 05:42:27;;;;;;;14.82;8.10;;;;;;;6.40;81.81;100869.19;4977671;28;20039;-64
2022/03/28 05:44:53;;;;;;;15.88;6.55;;;;;;;6.54;81.92;100891.19;4994481;28;20030;-63
2022/03/28 05:47:19;;;;;;;12.52;7.47;;;;;;;6.58;81.40;100882.38;4995165;28;20026;-64
2022/03/28 05:49:44;;;;;;;16.88;8.68;;;;;;;6.80;81.34;100889.38;4995036;28;20054;-64
2022/03/28 05:52:10;;;;;;;16.63;7.97;;;;;;;6.94;81.58;100871.66;4995025;28;20031;-64
2022/03/28 05:54:36;;;;;;;14.82;8.48;;;;;;;7.28;79.44;100889.13;4993548;28;20029;-64
2022/03/28 05:57:01;;;;;;;17.70;7.65;;;;;;;7.45;77.40;100887.25;4994170;28;20473;-64
2022/03/28 05:59:27;;;;;;;16.38;7.25;;;;;;;7.53;76.94;100896.03;4977499;28;20029;-64
2022/03/28 06:01:53;;;;;;;14.90;6.85;;;;;;;7.55;76.78;100883.66;4994700;28;20038;-64
2022/03/28 06:04:19;;;;;;;16.02;7.60;;;;;;;7.74;76.47;100884.44;4995305;28;20030;-64
2022/03/28 06:06:44;;;;;;;15.18;8.35;;;;;;;7.92;76.37;100890.44;4994639;28;20026;-64
2022/03/28 06:09:10;;;;;;;16.52;7.57;;;;;;;8.12;76.91;100892.97;4994899;28;20028;-64
2022/03/28 06:11:35;;;;;;;16.30;7.80;;;;;;;8.73;75.17;100890.59;4994710;28;20030;-64
2022/03/28 06:14:01;;;;;;;13.25;7.85;;;;;;;9.70;70.96;100887.53;4995032;28;20022;-64
2022/03/28 06:16:27;;;;;;;15.10;8.60;;;;;;;10.70;65.76;100892.00;4994703;28;20033;-64
2022/03/28 06:18:53;;;;;;;12.68;7.22;;;;;;;11.98;60.53;100884.75;4994642;28;20035;-64
2022/03/28 06:21:19;;;;;;;15.48;7.97;;;;;;;13.20;55.68;100876.97;4994287;28;20036;-64
2022/03/28 06:23:45;;;;;;;18.33;8.02;;;;;;;14.12;52.00;100874.03;4994885;28;20053;-64
2022/03/28 06:26:10;;;;;;;13.85;6.68;;;;;;;15.09;49.15;100879.50;4994508;28;20043;-64
2022/03/28 06:28:38;;;;;;;13.45;6.78;;;;;;;15.93;47.05;100875.31;4994546;28;20019;-64
2022/03/28 06:31:05;;;;;;;15.38;7.70;;;;;;;16.60;44.09;100881.47;4994341;28;20536;-64
2022/03/28 06:33:30;;;;;;;13.55;6.97;;;;;;;17.24;43.39;100883.03;4994238;28;20022;-64
2022/03/28 06:35:56;;;;;;;14.70;6.43;;;;;;;17.60;43.24;100878.66;4994180;28;20477;-64
2022/03/28 06:38:22;;;;;;;18.77;8.35;;;;;;;17.64;42.75;100888.34;4994482;28;20030;-64
2022/03/28 06:40:48;;;;;;;14.65;8.30;;;;;;;17.85;42.51;100881.91;4993961;28;20030;-64
2022/03/28 06:43:13;;;;;;;15.95;7.25;;;;;;;18.15;40.94;100880.38;5010879;28;20104;-64
2022/03/28 06:45:39;;;;;;;15.13;8.23;;;;;;;17.77;41.84;100880.53;5011203;28;20025;-63
2022/03/28 06:48:05;;;;;;;14.77;6.68;;;;;;;18.46;40.90;100881.56;4994297;28;20038;-64
2022/03/28 06:50:30;;;;;;;13.25;7.60;;;;;;;18.92;40.41;100886.31;4993770;28;20030;-64
2022/03/28 06:52:56;;;;;;;16.92;7.55;;;;;;;19.41;39.25;100874.66;4992836;28;20042;-64
2022/03/28 06:55:22;;;;;;;12.80;7.25;;;;;;;19.57;37.82;100875.56;4991909;28;20066;-64
2022/03/28 06:57:47;;;;;;;15.00;7.38;;;;;;;20.09;37.18;100884.25;4993821;28;20030;-64
2022/03/28 07:00:14;;;;;;;16.50;6.90;;;;;;;20.27;35.04;100886.81;4993580;28;20034;-64
2022/03/28 07:02:40;;;;;;;17.40;7.10;;;;;;;20.55;36.06;100886.91;4993958;28;20026;-64
2022/03/28 07:05:07;;;;;;;12.15;7.07;;;;;;;21.08;35.17;100885.53;4993865;28;20104;-64
2022/03/28 07:07:44;;;;;;;18.60;7.85;;;;;;;21.58;34.51;100881.34;4993815;28;20478;-64
2022/03/28 07:10:11;;;;;;;14.13;6.30;;;;;;;21.95;33.86;100882.59;4993757;28;20037;-64
2022/03/28 07:12:37;;;;;;;14.13;6.40;;;;;;;22.06;33.84;100877.31;4992565;28;20026;-64
2022/03/28 07:15:04;;;;;;;11.15;6.95;;;;;;;22.14;33.58;100867.72;4992855;28;20093;-64
2022/03/28 07:17:30;;;;;;;14.88;6.88;;;;;;;22.15;34.10;100863.19;4993501;28;20058;-65
2022/03/28 07:19:55;;;;;;;13.75;6.80;;;;;;;22.14;33.88;100873.16;4993258;28;20474;-64
2022/03/28 07:22:21;;;;;;;14.15;8.00;;;;;;;22.46;34.20;100871.00;4993132;28;20470;-64
2022/03/28 07:24:46;;;;;;;14.10;7.43;;;;;;;22.59;34.41;100871.03;4993685;28;20061;-65
2022/03/28 07:27:12;;;;;;;13.40;7.45;;;;;;;22.84;34.10;100877.41;4991729;28;20030;-64
2022/03/28 07:29:38;;;;;;;16.40;7.75;;;;;;;22.85;34.10;100873.69;4993672;28;20022;-64
2022/03/28 07:32:04;;;;;;;15.50;8.20;;;;;;;22.81;34.43;100877.63;4993550;28;20026;-64
2022/03/28 07:34:30;;;;;;;16.50;8.82;;;;;;;22.76;34.56;100873.47;4993584;28;20026;-65
2022/03/28 07:37:05;;;;;;;16.00;8.13;;;;;;;22.81;34.67;100865.88;4992840;28;20034;-64
2022/03/28 07:39:34;;;;;;;17.17;7.43;;;;;;;22.86;34.77;100858.31;4975423;28;20034;-64
2022/03/28 07:42:00;;;;;;;14.38;7.40;;;;;;;22.74;34.90;100864.56;4992933;28;20027;-65
2022/03/28 07:44:25;;;;;;;14.35;8.52;;;;;;;22.70;34.80;100874.75;4992511;28;20026;-64
2022/03/28 07:46:51;;;;;;;19.85;7.90;;;;;;;22.41;34.59;100856.00;4991503;28;20394;-64
2022/03/28 07:49:17;;;;;;;15.98;8.45;;;;;;;22.01;35.31;100853.25;4992696;28;20046;-64
2022/03/28 07:51:43;;;;;;;13.90;7.80;;;;;;;22.04;35.34;100863.03;4992588;28;20097;-64
2022/03/28 07:54:09;;;;;;;15.05;7.35;;;;;;;21.84;35.39;100861.66;4991974;28;20022;-64
2022/03/28 07:56:35;;;;;;;15.20;8.48;;;;;;;22.14;35.63;100858.75;4992625;28;20034;-65
2022/03/28 07:59:00;;;;;;;13.63;7.95;;;;;;;22.08;34.77;100859.13;4975445;28;20088;-65
2022/03/28 08:01:25;;;;;;;14.18;8.23;;;;;;;21.39;34.63;100831.19;4992519;28;20097;-65
2022/03/28 08:03:51;;;;;;;14.50;8.23;;;;;;;21.19;35.47;100832.47;4992618;28;20029;-64
2022/03/28 08:06:17;;;;;;;15.20;8.63;;;;;;;21.47;35.54;100843.28;4992429;28;20038;-64
2022/03/28 08:08:42;;;;;;;15.68;7.05;;;;;;;21.35;35.44;100845.91;4991539;28;20076;-65
2022/03/28 08:11:09;;;;;;;15.27;7.22;;;;;;;21.49;35.13;100837.75;4991843;28;20113;-64
2022/03/28 08:13:35;;;;;;;17.17;8.00;;;;;;;21.10;34.90;100834.91;4992896;28;20389;-64
2022/03/28 08:16:00;;;;;;;13.23;7.50;;;;;;;21.18;35.50;100825.34;4992552;28;20026;-64
2022/03/28 08:18:26;;;;;;;15.05;7.65;;;;;;;21.55;35.16;100832.81;4992658;28;20101;-64
2022/03/28 08:20:53;;;;;;;17.92;8.45;;;;;;;21.49;35.77;100819.69;4992542;28;20053;-64
2022/03/28 08:23:20;;;;;;;15.90;7.57;;;;;;;21.69;35.66;100818.41;4991999;28;20053;-64
2022/03/28 08:25:47;;;;;;;16.88;7.25;;;;;;;21.91;35.27;100824.19;4992384;28;20034;-64
2022/03/28 08:28:13;;;;;;;19.52;8.88;;;;;;;22.04;34.80;100827.81;4992467;28;20057;-64
2022/03/28 08:30:38;;;;;;;19.00;8.57;;;;;;;22.24;34.76;100821.03;4992111;28;20026;-64
2022/03/28 08:33:05;;;;;;;14.98;8.13;;;;;;;22.45;34.92;100823.16;4991655;28;20493;-64
2022/03/28 08:35:30;;;;;;;15.82;7.50;;;;;;;22.60;33.57;100827.53;5006245;28;20033;-64
2022/03/28 08:37:56;;;;;;;20.95;7.53;;;;;;;22.51;35.20;100814.59;5011067;28;20022;-64
2022/03/28 08:40:22;;;;;;;16.45;7.05;;;;;;;22.63;34.27;100811.09;5011601;28;20433;-64
2022/03/28 08:42:49;;;;;;;14.63;7.38;;;;;;;22.89;34.17;100817.38;5011608;28;20132;-65
2022/03/28 08:45:15;;;;;;;13.23;7.00;;;;;;;23.24;33.73;100816.59;5011681;28;20473;-64
2022/03/28 08:47:51;;;;;;;15.77;6.38;;;;;;;23.23;33.42;100820.28;4992524;28;20022;-64
2022/03/28 08:50:17;;;;;;;13.52;7.03;;;;;;;23.25;34.22;100826.50;4991170;28;20065;-64
2022/03/28 08:52:43;;;;;;;15.63;7.45;;;;;;;23.74;33.82;100814.81;4991250;28;20555;-64
2022/03/28 08:55:13;;;;;;;14.82;7.85;;;;;;;24.00;32.39;100813.75;4989847;28;20022;-64
2022/03/28 08:57:39;;;;;;;14.95;7.22;;;;;;;23.96;32.06;100814.91;4991853;28;20031;-64
2022/03/28 09:00:07;;;;;;;14.25;7.95;;;;;;;24.07;31.43;100815.88;4991960;28;20055;-64
2022/03/28 09:02:44;;;;;;;12.00;6.63;;;;;;;23.78;31.41;100808.13;4991789;28;20038;-64
2022/03/28 09:05:11;;;;;;;17.08;8.88;;;;;;;23.80;30.98;100811.63;4992017;28;20081;-64
2022/03/28 09:07:37;;;;;;;12.50;6.90;;;;;;;23.92;31.50;100810.72;4992084;28;20014;-64
2022/03/28 09:10:11;;;;;;;14.15;7.30;;;;;;;24.70;32.04;100796.50;4991833;28;20033;-64
2022/03/28 09:12:41;;;;;;;15.73;6.85;;;;;;;25.17;29.84;100790.84;4992018;28;20049;-64
2022/03/28 09:15:09;;;;;;;13.55;6.78;;;;;;;24.99;30.14;100792.31;4990689;28;20018;-64
2022/03/28 09:17:39;;;;;;;13.90;7.95;;;;;;;25.07;29.36;100784.44;5000810;28;20453;-64
2022/03/28 09:20:05;;;;;;;16.05;7.88;;;;;;;25.26;29.97;100779.22;4995179;28;20478;-64
2022/03/28 09:22:32;;;;;;;17.55;7.45;;;;;;;25.54;29.28;100778.75;4995317;28;20081;-64
2022/03/28 09:25:03;;;;;;;13.40;7.30;;;;;;;25.85;28.02;100775.19;4995483;28;20041;-64
2022/03/28 09:27:31;;;;;;;14.27;7.28;;;;;;;25.62;29.11;100768.06;4995787;28;20030;-64
2022/03/28 09:30:08;;;;;;;21.17;7.00;;;;;;;25.81;27.87;100773.72;4995313;28;20034;-64
2022/03/28 09:32:36;;;;;;;16.40;6.97;;;;;;;25.24;28.33;100764.84;4995942;28;20029;-64
2022/03/28 09:35:19;;;;;;;13.50;6.35;;;;;;;25.71;28.16;100763.72;4995027;28;20106;-64
2022/03/28 09:37:48;;;;;;;13.75;6.55;;;;;;;26.22;28.44;100766.66;4994438;28;20035;-64
2022/03/28 09:40:39;;;;;;;13.23;6.88;;;;;;;26.14;27.40;100761.00;4995351;28;20037;-64
2022/03/28 09:43:19;;;;;;;14.10;6.78;;;;;;;26.32;27.94;100756.69;4995354;28;20033;-64
2022/03/28 09:45:50;;;;;;;15.00;6.68;;;;;;;26.51;27.29;100749.50;4995496;28;20022;-64
2022/03/28 09:48:19;;;;;;;13.27;6.55;;;;;;;26.73;28.24;100754.00;4987481;28;20061;-64
2022/03/28 09:50:55;;;;;;;15.25;7.13;;;;;;;27.05;27.98;100760.22;4994916;28;20509;-64
2022/03/28 09:53:27;;;;;;;15.30;7.50;;;;;;;27.26;26.52;100747.38;4995287;28;20037;-64
2022/03/28 09:56:13;;;;;;;16.33;6.35;;;;;;;27.45;26.59;100743.84;4994288;28;20109;-64
2022/03/28 09:58:46;;;;;;;14.45;6.00;;;;;;;27.31;26.13;100745.13;4992767;28;20030;-64
2022/03/28 10:01:18;;;;;;;13.20;6.72;;;;;;;26.85;26.46;100736.56;4994596;28;20026;-64
2022/03/28 10:03:46;;;;;;;17.65;6.60;;;;;;;26.90;26.94;100734.28;4995019;28;20516;-64
2022/03/28 10:06:11;;;;;;;18.20;7.10;;;;;;;26.90;28.24;100734.28;4995226;28;20026;-66
2022/03/28 10:08:38;;;;;;;14.43;7.00;;;;;;;27.11;27.23;100726.91;4994844;28;20046;-64
2022/03/28 10:11:05;;;;;;;16.83;7.40;;;;;;;26.61;27.44;100717.69;4994984;28;20029;-64
2022/03/28 10:13:31;;;;;;;12.45;6.55;;;;;;;27.23;28.15;100720.34;4994892;28;20030;-64
2022/03/28 10:15:58;;;;;;;14.45;6.68;;;;;;;27.61;26.74;100725.91;4993425;28;20025;-64
2022/03/28 10:18:27;;;;;;;17.33;7.03;;;;;;;27.81;26.86;100721.38;4994537;28;20105;-64
2022/03/28 10:20:54;;;;;;;14.43;6.43;;;;;;;27.94;26.75;100711.03;4993433;28;20114;-65
2022/03/28 10:23:26;;;;;;;14.30;6.35;;;;;;;28.07;26.63;100701.50;4988085;28;20034;-65
2022/03/28 10:25:54;;;;;;;17.02;7.32;;;;;;;27.45;26.18;100701.00;4991711;28;20022;-64
2022/03/28 10:28:20;;;;;;;15.05;7.47;;;;;;;27.59;27.36;100699.75;5011371;28;20033;-65
2022/03/28 10:30:46;;;;;;;15.02;6.85;;;;;;;27.46;26.20;100690.94;5014098;28;20030;-65
2022/03/28 10:33:18;;;;;;;15.93;7.32;;;;;;;28.29;26.56;100687.53;5014288;28;20048;-65
2022/03/28 10:35:59;;;;;;;14.80;7.53;;;;;;;28.44;24.86;100683.34;4994779;28;20489;-65
2022/03/28 10:38:25;;;;;;;16.40;7.13;;;;;;;28.52;25.94;100681.78;4994426;28;20541;-65
2022/03/28 10:40:55;;;;;;;13.20;6.82;;;;;;;28.63;26.29;100676.13;4994326;28;20413;-65
2022/03/28 10:43:24;;;;;;;15.90;7.30;;;;;;;28.86;24.41;100672.88;4994652;28;20030;-64
2022/03/28 10:45:52;;;;;;;15.52;7.18;;;;;;;28.85;25.28;100675.72;4994366;28;20482;-65
2022/03/28 10:48:34;;;;;;;19.60;8.40;;;;;;;29.04;24.44;100665.59;4998629;28;20054;-65
2022/03/28 10:51:21;;;;;;;14.20;7.22;;;;;;;28.93;23.75;100662.19;5012978;28;20041;-65
2022/03/28 10:53:52;;;;;;;16.13;7.78;;;;;;;28.55;24.21;100662.31;5013409;28;20030;-65
2022/03/28 10:56:20;;;;;;;15.27;6.95;;;;;;;28.51;25.84;100655.41;5013655;28;20037;-64
2022/03/28 10:58:57;;;;;;;14.60;7.45;;;;;;;28.61;25.99;100658.97;5013590;28;20025;-65
2022/03/28 11:01:26;;;;;;;16.48;7.40;;;;;;;29.15;25.45;100651.69;5010714;28;20478;-65
2022/03/28 11:03:51;;;;;;;16.27;8.35;;;;;;;29.01;24.02;100648.56;4993762;28;20084;-65
2022/03/28 11:06:19;;;;;;;16.67;8.25;;;;;;;29.33;24.59;100649.00;4993556;28;20478;-65
2022/03/28 11:08:57;;;;;;;16.33;7.18;;;;;;;29.77;23.68;100641.78;4993817;28;20023;-65
2022/03/28 11:11:30;;;;;;;15.68;7.50;;;;;;;29.87;23.82;100642.56;4976264;28;20045;-64
2022/03/28 11:14:09;;;;;;;15.82;7.68;;;;;;;29.85;24.27;100623.53;4993190;28;20162;-65
2022/03/28 11:16:40;;;;;;;15.30;6.53;;;;;;;29.99;24.05;100628.44;4993161;28;20033;-65
2022/03/28 11:19:35;;;;;;;14.68;6.88;;;;;;;30.42;23.78;100622.97;4993583;28;20034;-65
2022/03/28 11:22:03;;;;;;;17.08;6.70;;;;;;;30.62;23.14;100618.97;4993633;28;20059;-65
2022/03/28 11:24:51;;;;;;;17.88;7.88;;;;;;;30.63;23.12;100617.06;5009604;28;20036;-65